createdAt,value
2022-09-29T00:00:56.477Z,21.74
2022-09-29T00:01:56.275Z,21.74
2022-09-29T00:02:56.244Z,21.72
2022-09-29T00:03:56.272Z,21.71
2022-09-29T00:04:56.156Z,21.74
2022-09-29T00:05:56.131Z,21.71
2022-09-29T00:06:56.223Z,21.71
2022-09-29T00:07:56.116Z,21.72
2022-09-29T00:08:56.104Z,21.72
2022-09-29T00:09:56.174Z,21.72
2022-09-29T00:10:56.070Z,21.69
2022-09-29T00:11:56.055Z,21.69
2022-09-29T00:12:56.352Z,21.72
2022-09-29T00:13:56.034Z,21.72
2022-09-29T00:14:56.006Z,21.71
2022-09-29T00:15:56.054Z,21.71
2022-09-29T00:16:55.993Z,21.69
2022-09-29T00:18:13.201Z,21.69
2022-09-29T00:18:57.062Z,21.69
2022-09-29T00:19:55.942Z,21.65
2022-09-29T00:20:55.924Z,21.69
2022-09-29T00:21:55.937Z,21.69
2022-09-29T00:22:55.891Z,21.67
2022-09-29T00:23:55.886Z,21.69
2022-09-29T00:24:55.988Z,21.67
2022-09-29T00:25:55.862Z,21.68
2022-09-29T00:26:55.831Z,21.67
2022-09-29T00:27:55.895Z,21.65
2022-09-29T00:28:55.856Z,21.71
2022-09-29T00:29:55.797Z,21.68
2022-09-29T00:30:56.009Z,21.68
2022-09-29T00:31:55.815Z,21.68
2022-09-29T00:32:55.768Z,21.68
2022-09-29T00:33:55.819Z,21.67
2022-09-29T00:34:55.730Z,21.67
2022-09-29T00:35:55.718Z,21.67
2022-09-29T00:36:55.863Z,21.65
2022-09-29T00:37:55.693Z,21.67
2022-09-29T00:38:55.794Z,21.67
2022-09-29T00:39:55.715Z,21.67
2022-09-29T00:40:55.653Z,21.64
2022-09-29T00:41:55.629Z,21.65
2022-09-29T00:42:55.703Z,21.64
2022-09-29T00:43:55.619Z,21.65
2022-09-29T00:44:55.585Z,21.62
2022-09-29T00:45:55.635Z,21.62
2022-09-29T00:46:55.556Z,21.64
2022-09-29T00:47:55.555Z,21.65
2022-09-29T00:48:55.617Z,21.67
2022-09-29T00:49:55.528Z,21.67
2022-09-29T00:50:55.509Z,21.64
2022-09-29T00:51:55.551Z,21.64
2022-09-29T00:52:55.475Z,21.62
2022-09-29T00:53:55.460Z,21.64
2022-09-29T00:54:55.597Z,21.64
2022-09-29T00:55:55.441Z,21.65
2022-09-29T00:56:55.411Z,21.64
2022-09-29T00:57:55.442Z,21.64
2022-09-29T00:58:55.527Z,21.61
2022-09-29T00:59:55.389Z,21.59
2022-09-29T01:00:55.579Z,21.61
2022-09-29T01:01:55.384Z,21.61
2022-09-29T01:02:55.330Z,21.65
2022-09-29T01:03:55.438Z,21.62
2022-09-29T01:04:55.305Z,21.64
2022-09-29T01:05:55.293Z,21.61
2022-09-29T01:06:55.361Z,21.62
2022-09-29T01:07:55.275Z,21.62
2022-09-29T01:08:55.280Z,21.59
2022-09-29T01:09:55.484Z,21.61
2022-09-29T01:10:55.224Z,21.59
2022-09-29T01:11:55.211Z,21.59
2022-09-29T01:12:55.349Z,21.61
2022-09-29T01:13:55.242Z,21.59
2022-09-29T01:14:55.168Z,21.59
2022-09-29T01:15:55.248Z,21.59
2022-09-29T01:16:55.138Z,21.61
2022-09-29T01:17:55.134Z,21.61
2022-09-29T01:18:55.277Z,21.58
2022-09-29T01:19:55.098Z,21.58
2022-09-29T01:20:55.094Z,21.56
2022-09-29T01:21:55.111Z,21.58
2022-09-29T01:22:55.053Z,21.56
2022-09-29T01:23:55.088Z,21.56
2022-09-29T01:24:55.186Z,21.54
2022-09-29T01:25:55.025Z,21.56
2022-09-29T01:26:54.992Z,21.58
2022-09-29T01:27:55.024Z,21.54
2022-09-29T01:28:54.969Z,21.56
2022-09-29T01:29:54.961Z,21.58
2022-09-29T01:30:55.035Z,21.54
2022-09-29T01:31:54.967Z,21.54
2022-09-29T01:32:54.915Z,21.53
2022-09-29T01:33:54.929Z,21.54
2022-09-29T01:34:54.875Z,21.56
2022-09-29T01:35:55.842Z,21.53
2022-09-29T01:36:55.003Z,21.56
2022-09-29T01:37:54.851Z,21.54
2022-09-29T01:38:54.829Z,21.53
2022-09-29T01:39:54.845Z,21.54
2022-09-29T01:40:54.951Z,21.54
2022-09-29T01:41:54.797Z,21.52
2022-09-29T01:42:54.918Z,21.56
2022-09-29T01:43:54.786Z,21.56
2022-09-29T01:44:54.743Z,21.52
2022-09-29T01:45:54.827Z,21.53
2022-09-29T01:46:54.714Z,21.54
2022-09-29T01:47:54.697Z,21.52
2022-09-29T01:48:54.874Z,21.50
2022-09-29T01:49:54.678Z,21.52
2022-09-29T01:50:54.658Z,21.52
2022-09-29T01:51:54.655Z,21.52
2022-09-29T01:52:54.622Z,21.50
2022-09-29T01:53:54.610Z,21.53
2022-09-29T01:54:54.685Z,21.52
2022-09-29T01:55:54.587Z,21.53
2022-09-29T01:56:54.643Z,21.52
2022-09-29T01:57:54.588Z,21.50
2022-09-29T01:58:54.551Z,21.53
2022-09-29T01:59:54.652Z,21.49
2022-09-29T02:00:54.665Z,21.50
2022-09-29T02:01:57.765Z,21.52
2022-09-29T02:02:55.529Z,21.53
2022-09-29T02:03:54.483Z,21.50
2022-09-29T02:04:54.462Z,21.52
2022-09-29T02:05:54.441Z,21.53
2022-09-29T02:06:54.588Z,21.49
2022-09-29T02:07:54.419Z,21.49
2022-09-29T02:08:54.454Z,21.53
2022-09-29T02:09:54.394Z,21.53
2022-09-29T02:10:54.406Z,21.49
2022-09-29T02:11:54.376Z,21.52
2022-09-29T02:12:54.428Z,21.49
2022-09-29T02:13:54.331Z,21.49
2022-09-29T02:14:54.354Z,21.47
2022-09-29T02:15:54.325Z,21.47
2022-09-29T02:16:54.288Z,21.50
2022-09-29T02:17:54.296Z,21.47
2022-09-29T02:18:58.297Z,21.49
2022-09-29T02:19:54.344Z,21.49
2022-09-29T02:20:54.483Z,21.49
2022-09-29T02:21:54.310Z,21.47
2022-09-29T02:22:54.242Z,21.46
2022-09-29T02:23:54.198Z,21.44
2022-09-29T02:24:54.371Z,21.47
2022-09-29T02:25:54.203Z,21.47
2022-09-29T02:26:54.215Z,21.44
2022-09-29T02:27:54.192Z,21.44
2022-09-29T02:28:54.940Z,21.47
2022-09-29T02:29:54.195Z,21.47
2022-09-29T02:30:54.364Z,21.46
2022-09-29T02:31:54.150Z,21.46
2022-09-29T02:32:54.142Z,21.46
2022-09-29T02:33:54.055Z,21.49
2022-09-29T02:34:54.038Z,21.47
2022-09-29T02:35:54.041Z,21.46
2022-09-29T02:36:54.183Z,21.46
2022-09-29T02:37:54.002Z,21.44
2022-09-29T02:38:54.028Z,21.46
2022-09-29T02:39:53.962Z,21.46
2022-09-29T02:40:54.006Z,21.43
2022-09-29T02:41:53.938Z,21.46
2022-09-29T02:42:54.494Z,21.44
2022-09-29T02:43:53.912Z,21.44
2022-09-29T02:44:53.953Z,21.43
2022-09-29T02:45:54.624Z,21.43
2022-09-29T02:46:53.883Z,21.43
2022-09-29T02:47:53.853Z,21.42
2022-09-29T02:48:53.962Z,21.44
2022-09-29T02:49:53.853Z,21.42
2022-09-29T02:50:53.868Z,21.43
2022-09-29T02:51:53.795Z,21.44
2022-09-29T02:52:53.784Z,21.42
2022-09-29T02:53:53.763Z,21.43
2022-09-29T02:54:53.899Z,21.43
2022-09-29T02:55:53.748Z,21.44
2022-09-29T02:56:53.792Z,21.43
2022-09-29T02:57:53.712Z,21.43
2022-09-29T02:58:53.694Z,21.42
2022-09-29T02:59:53.713Z,21.42
2022-09-29T03:00:54.422Z,21.43
2022-09-29T03:01:53.690Z,21.43
2022-09-29T03:02:53.679Z,21.43
2022-09-29T03:03:53.668Z,21.40
2022-09-29T03:04:53.631Z,21.43
2022-09-29T03:05:53.635Z,21.44
2022-09-29T03:06:53.690Z,21.42
2022-09-29T03:07:53.573Z,21.43
2022-09-29T03:08:53.584Z,21.43
2022-09-29T03:09:53.565Z,21.40
2022-09-29T03:10:53.792Z,21.42
2022-09-29T03:11:53.544Z,21.42
2022-09-29T03:12:53.653Z,21.42
2022-09-29T03:13:53.610Z,21.37
2022-09-29T03:14:53.521Z,21.40
2022-09-29T03:15:53.521Z,21.42
2022-09-29T03:16:53.487Z,21.40
2022-09-29T03:17:53.437Z,21.37
2022-09-29T03:18:53.662Z,21.40
2022-09-29T03:19:53.407Z,21.43
2022-09-29T03:20:53.462Z,21.40
2022-09-29T03:21:53.411Z,21.40
2022-09-29T03:22:53.362Z,21.38
2022-09-29T03:23:57.519Z,21.38
2022-09-29T03:24:53.429Z,21.40
2022-09-29T03:25:53.320Z,21.38
2022-09-29T03:26:53.512Z,21.35
2022-09-29T03:27:53.301Z,21.38
2022-09-29T03:28:53.289Z,21.38
2022-09-29T03:29:53.268Z,21.40
2022-09-29T03:30:53.385Z,21.40
2022-09-29T03:31:53.268Z,21.37
2022-09-29T03:32:53.497Z,21.38
2022-09-29T03:33:53.202Z,21.37
2022-09-29T03:34:53.342Z,21.37
2022-09-29T03:35:53.180Z,21.37
2022-09-29T03:36:53.161Z,21.37
2022-09-29T03:37:54.614Z,21.38
2022-09-29T03:38:53.161Z,21.38
2022-09-29T03:39:53.127Z,21.38
2022-09-29T03:40:53.324Z,21.38
2022-09-29T03:41:53.089Z,21.35
2022-09-29T03:42:53.410Z,21.37
2022-09-29T03:43:53.057Z,21.35
2022-09-29T03:44:53.093Z,21.37
2022-09-29T03:45:53.295Z,21.34
2022-09-29T03:46:54.921Z,21.34
2022-09-29T03:47:53.009Z,21.37
2022-09-29T03:48:52.996Z,21.35
2022-09-29T03:49:52.979Z,21.34
2022-09-29T03:50:53.011Z,21.32
2022-09-29T03:51:52.949Z,21.35
2022-09-29T03:52:53.105Z,21.35
2022-09-29T03:53:52.925Z,21.34
2022-09-29T03:54:52.913Z,21.35
2022-09-29T03:55:52.911Z,21.32
2022-09-29T03:56:52.917Z,21.35
2022-09-29T03:57:52.877Z,21.35
2022-09-29T03:58:53.076Z,21.31
2022-09-29T03:59:52.857Z,21.35
2022-09-29T04:00:52.853Z,21.35
2022-09-29T04:01:52.839Z,21.32
2022-09-29T04:02:52.831Z,21.34
2022-09-29T04:03:52.807Z,21.32
2022-09-29T04:04:53.005Z,21.32
2022-09-29T04:05:52.764Z,21.34
2022-09-29T04:06:52.745Z,21.35
2022-09-29T04:07:52.820Z,21.32
2022-09-29T04:08:52.759Z,21.32
2022-09-29T04:09:52.697Z,21.32
2022-09-29T04:10:52.804Z,21.35
2022-09-29T04:11:52.866Z,21.32
2022-09-29T04:12:52.663Z,21.31
2022-09-29T04:13:52.649Z,21.32
2022-09-29T04:14:52.651Z,21.34
2022-09-29T04:15:52.690Z,21.32
2022-09-29T04:16:52.753Z,21.34
2022-09-29T04:17:52.588Z,21.34
2022-09-29T04:18:52.579Z,21.29
2022-09-29T04:19:52.579Z,21.34
2022-09-29T04:20:52.581Z,21.31
2022-09-29T04:21:52.525Z,21.32
2022-09-29T04:22:52.600Z,21.31
2022-09-29T04:23:52.510Z,21.31
2022-09-29T04:24:52.487Z,21.31
2022-09-29T04:25:52.477Z,21.32
2022-09-29T04:26:52.493Z,21.31
2022-09-29T04:27:52.455Z,21.29
2022-09-29T04:28:52.581Z,21.28
2022-09-29T04:29:52.426Z,21.29
2022-09-29T04:30:52.428Z,21.29
2022-09-29T04:31:52.459Z,21.28
2022-09-29T04:32:52.645Z,21.29
2022-09-29T04:33:52.379Z,21.31
2022-09-29T04:34:52.555Z,21.28
2022-09-29T04:35:52.354Z,21.29
2022-09-29T04:36:52.363Z,21.29
2022-09-29T04:37:52.306Z,21.27
2022-09-29T04:38:52.324Z,21.27
2022-09-29T04:39:52.311Z,21.31
2022-09-29T04:40:52.550Z,21.28
2022-09-29T04:41:52.252Z,21.31
2022-09-29T04:42:52.232Z,21.31
2022-09-29T04:43:52.224Z,21.31
2022-09-29T04:44:52.250Z,21.34
2022-09-29T04:45:52.262Z,21.34
2022-09-29T04:46:52.611Z,21.34
2022-09-29T04:47:52.170Z,21.37
2022-09-29T04:48:52.150Z,21.40
2022-09-29T04:49:52.148Z,21.38
2022-09-29T04:50:52.165Z,21.40
2022-09-29T04:51:52.116Z,21.42
2022-09-29T04:52:52.260Z,21.43
2022-09-29T04:53:52.103Z,21.43
2022-09-29T04:54:52.073Z,21.44
2022-09-29T04:55:52.061Z,21.47
2022-09-29T04:56:52.090Z,21.47
2022-09-29T04:57:52.029Z,21.50
2022-09-29T04:58:52.180Z,21.47
2022-09-29T04:59:52.018Z,21.52
2022-09-29T05:00:52.074Z,21.53
2022-09-29T05:01:52.042Z,21.54
2022-09-29T05:02:52.012Z,21.56
2022-09-29T05:03:51.951Z,21.58
2022-09-29T05:04:52.035Z,21.61
2022-09-29T05:05:51.977Z,21.62
2022-09-29T05:06:51.906Z,21.62
2022-09-29T05:07:51.886Z,21.65
2022-09-29T05:08:51.914Z,21.68
2022-09-29T05:09:51.875Z,21.67
2022-09-29T05:10:52.103Z,21.68
2022-09-29T05:11:52.179Z,21.71
2022-09-29T05:12:51.815Z,21.72
2022-09-29T05:13:51.803Z,21.72
2022-09-29T05:14:51.830Z,21.74
2022-09-29T05:15:51.943Z,21.75
2022-09-29T05:16:51.925Z,21.77
2022-09-29T05:17:51.761Z,21.79
2022-09-29T05:18:51.747Z,21.77
2022-09-29T05:19:51.722Z,21.79
2022-09-29T05:21:15.828Z,21.80
2022-09-29T05:21:52.838Z,21.77
2022-09-29T05:22:51.684Z,21.82
2022-09-29T05:23:51.668Z,21.77
2022-09-29T05:24:51.664Z,21.79
2022-09-29T05:25:51.631Z,21.79
2022-09-29T05:26:56.074Z,21.77
2022-09-29T05:27:52.801Z,21.79
2022-09-29T05:28:51.597Z,21.74
2022-09-29T05:29:51.581Z,21.79
2022-09-29T05:30:51.571Z,21.75
2022-09-29T05:31:51.599Z,21.74
2022-09-29T05:32:55.652Z,21.79
2022-09-29T05:33:52.682Z,21.74
2022-09-29T05:34:51.528Z,21.77
2022-09-29T05:35:51.549Z,21.80
2022-09-29T05:36:51.496Z,21.75
2022-09-29T05:37:51.460Z,21.77
2022-09-29T05:38:51.637Z,21.74
2022-09-29T05:39:51.549Z,21.77
2022-09-29T05:40:51.452Z,21.80
2022-09-29T05:41:51.497Z,21.79
2022-09-29T05:42:51.406Z,21.77
2022-09-29T05:43:51.384Z,21.75
2022-09-29T05:44:51.398Z,21.79
2022-09-29T05:45:51.738Z,21.77
2022-09-29T05:46:51.333Z,21.79
2022-09-29T05:47:51.333Z,21.79
2022-09-29T05:48:51.339Z,21.80
2022-09-29T05:49:51.340Z,21.80
2022-09-29T05:50:51.323Z,21.77
2022-09-29T05:51:51.473Z,21.79
2022-09-29T05:52:51.251Z,21.79
2022-09-29T05:53:51.253Z,21.80
2022-09-29T05:54:51.241Z,21.77
2022-09-29T05:55:51.215Z,21.80
2022-09-29T05:56:51.226Z,21.79
2022-09-29T05:57:51.393Z,21.80
2022-09-29T05:58:51.164Z,21.77
2022-09-29T05:59:51.153Z,21.77
2022-09-29T06:00:51.206Z,21.82
2022-09-29T06:01:52.146Z,21.80
2022-09-29T06:02:51.149Z,21.77
2022-09-29T06:03:51.239Z,21.80
2022-09-29T06:04:51.081Z,21.80
2022-09-29T06:05:51.133Z,21.79
2022-09-29T06:06:51.274Z,21.82
2022-09-29T06:07:51.037Z,21.82
2022-09-29T06:08:51.063Z,21.82
2022-09-29T06:09:51.296Z,21.80
2022-09-29T06:10:51.012Z,21.80
2022-09-29T06:11:51.253Z,21.83
2022-09-29T06:12:50.968Z,21.82
2022-09-29T06:13:52.425Z,21.84
2022-09-29T06:14:51.195Z,21.80
2022-09-29T06:15:51.100Z,21.82
2022-09-29T06:16:51.043Z,21.83
2022-09-29T06:17:50.909Z,21.84
2022-09-29T06:18:50.890Z,21.80
2022-09-29T06:19:51.143Z,21.82
2022-09-29T06:20:50.918Z,21.80
2022-09-29T06:21:50.964Z,21.83
2022-09-29T06:22:50.824Z,21.83
2022-09-29T06:23:50.813Z,21.82
2022-09-29T06:24:50.800Z,21.84
2022-09-29T06:25:50.853Z,21.82
2022-09-29T06:26:51.079Z,21.82
2022-09-29T06:27:50.977Z,21.80
2022-09-29T06:28:50.764Z,21.79
2022-09-29T06:29:51.420Z,21.80
2022-09-29T06:30:50.725Z,21.79
2022-09-29T06:31:50.961Z,21.79
2022-09-29T06:32:50.735Z,21.80
2022-09-29T06:33:50.776Z,21.82
2022-09-29T06:34:50.918Z,21.80
2022-09-29T06:35:50.671Z,21.80
2022-09-29T06:36:50.634Z,21.80
2022-09-29T06:37:50.622Z,21.84
2022-09-29T06:38:50.683Z,21.82
2022-09-29T06:39:50.758Z,21.82
2022-09-29T06:40:50.676Z,21.79
2022-09-29T06:41:50.574Z,21.82
2022-09-29T06:42:50.565Z,21.77
2022-09-29T06:43:50.536Z,21.79
2022-09-29T06:44:50.818Z,21.77
2022-09-29T06:45:51.036Z,21.80
2022-09-29T06:46:50.504Z,21.79
2022-09-29T06:47:50.549Z,21.75
2022-09-29T06:48:50.466Z,21.77
2022-09-29T06:49:51.491Z,21.74
2022-09-29T06:51:02.779Z,21.74
2022-09-29T06:51:51.826Z,21.75
2022-09-29T06:53:02.249Z,21.75
2022-09-29T06:53:52.908Z,21.72
2022-09-29T06:54:50.385Z,21.75
2022-09-29T06:55:50.373Z,21.75
2022-09-29T06:56:50.372Z,21.75
2022-09-29T06:57:50.519Z,21.71
2022-09-29T06:58:50.309Z,21.72
2022-09-29T06:59:50.315Z,21.71
2022-09-29T07:00:50.878Z,21.69
2022-09-29T07:01:51.276Z,21.74
2022-09-29T07:02:50.529Z,21.72
2022-09-29T07:03:50.420Z,21.74
2022-09-29T07:04:50.250Z,21.69
2022-09-29T07:06:15.240Z,21.72
2022-09-29T07:06:51.222Z,21.74
2022-09-29T07:07:53.189Z,21.72
2022-09-29T07:08:50.257Z,21.72
2022-09-29T07:09:50.287Z,21.68
2022-09-29T07:10:50.217Z,21.72
2022-09-29T07:11:50.217Z,21.71
2022-09-29T07:12:50.119Z,21.72
2022-09-29T07:13:54.028Z,21.72
2022-09-29T07:14:50.178Z,21.74
2022-09-29T07:15:50.105Z,21.74
2022-09-29T07:16:50.095Z,21.74
2022-09-29T07:17:50.142Z,21.77
2022-09-29T07:18:50.044Z,21.72
2022-09-29T07:19:50.356Z,21.72
2022-09-29T07:20:50.092Z,21.74
2022-09-29T07:21:50.092Z,21.72
2022-09-29T07:22:49.992Z,21.71
2022-09-29T07:23:50.056Z,21.69
2022-09-29T07:24:49.951Z,21.68
2022-09-29T07:25:52.356Z,21.67
2022-09-29T07:26:49.999Z,21.64
2022-09-29T07:27:49.924Z,21.65
2022-09-29T07:28:49.914Z,21.59
2022-09-29T07:29:59.390Z,21.59
2022-09-29T07:30:51.051Z,21.58
2022-09-29T07:31:52.319Z,21.56
2022-09-29T07:33:00.888Z,21.58
2022-09-29T07:33:50.950Z,21.56
2022-09-29T07:34:49.842Z,21.56
2022-09-29T07:35:49.913Z,21.59
2022-09-29T07:36:49.795Z,21.56
2022-09-29T07:37:51.286Z,21.56
2022-09-29T07:38:49.786Z,21.54
2022-09-29T07:39:50.114Z,21.58
2022-09-29T07:40:49.773Z,21.56
2022-09-29T07:41:50.406Z,21.52
2022-09-29T07:42:49.734Z,21.56
2022-09-29T07:43:49.847Z,21.53
2022-09-29T07:44:52.389Z,21.56
2022-09-29T07:45:49.707Z,21.54
2022-09-29T07:46:49.759Z,21.59
2022-09-29T07:47:49.794Z,21.53
2022-09-29T07:48:49.612Z,21.59
2022-09-29T07:49:49.621Z,21.58
2022-09-29T07:50:49.874Z,21.59
2022-09-29T07:51:50.591Z,21.59
2022-09-29T07:52:49.581Z,21.56
2022-09-29T07:53:49.873Z,21.59
2022-09-29T07:54:49.543Z,21.59
2022-09-29T07:55:49.534Z,21.59
2022-09-29T07:56:49.539Z,21.62
2022-09-29T07:57:49.490Z,21.62
2022-09-29T07:58:49.476Z,21.64
2022-09-29T07:59:53.167Z,21.64
2022-09-29T08:00:49.491Z,21.64
2022-09-29T08:01:49.510Z,21.64
2022-09-29T08:02:49.522Z,21.65
2022-09-29T08:03:49.535Z,21.65
2022-09-29T08:04:49.390Z,21.65
2022-09-29T08:05:49.466Z,21.67
2022-09-29T08:06:49.375Z,21.64
2022-09-29T08:07:49.391Z,21.65
2022-09-29T08:09:00.261Z,21.67
2022-09-29T08:09:50.328Z,21.68
2022-09-29T08:10:53.430Z,21.65
2022-09-29T08:11:59.058Z,21.65
2022-09-29T08:12:50.288Z,21.69
2022-09-29T08:13:49.349Z,21.68
2022-09-29T08:14:49.561Z,21.74
2022-09-29T08:15:49.392Z,21.72
2022-09-29T08:16:49.290Z,21.75
2022-09-29T08:17:49.739Z,21.75
2022-09-29T08:18:50.237Z,21.79
2022-09-29T08:19:49.225Z,21.79
2022-09-29T08:20:49.217Z,21.82
2022-09-29T08:21:49.221Z,21.83
2022-09-29T08:22:49.223Z,21.84
2022-09-29T08:23:49.340Z,21.84
2022-09-29T08:24:49.137Z,21.88
2022-09-29T08:25:58.679Z,21.91
2022-09-29T08:26:50.107Z,21.91
2022-09-29T08:27:55.348Z,21.92
2022-09-29T08:28:59.616Z,21.94
2022-09-29T08:29:50.243Z,21.98
2022-09-29T08:30:49.043Z,21.99
2022-09-29T08:31:49.134Z,22.02
2022-09-29T08:32:49.031Z,22.05
2022-09-29T08:33:53.272Z,22.05
2022-09-29T08:34:49.182Z,22.05
2022-09-29T08:35:49.132Z,22.06
2022-09-29T08:36:49.052Z,22.07
2022-09-29T08:37:49.147Z,22.09
2022-09-29T08:38:48.976Z,22.12
2022-09-29T08:39:48.981Z,22.10
2022-09-29T08:40:49.200Z,22.12
2022-09-29T08:41:48.952Z,22.10
2022-09-29T08:42:49.379Z,22.14
2022-09-29T08:43:48.864Z,22.17
2022-09-29T08:44:48.866Z,22.15
2022-09-29T08:45:58.904Z,22.15
2022-09-29T08:46:53.392Z,22.17
2022-09-29T08:47:49.968Z,22.18
2022-09-29T08:48:57.485Z,22.20
2022-09-29T08:49:49.908Z,22.21
2022-09-29T08:50:48.866Z,22.20
2022-09-29T08:51:48.851Z,22.22
2022-09-29T08:52:52.403Z,22.22
2022-09-29T08:53:59.689Z,22.20
2022-09-29T08:54:49.970Z,22.24
2022-09-29T08:55:49.082Z,22.22
2022-09-29T08:56:48.659Z,22.25
2022-09-29T08:57:48.902Z,22.25
2022-09-29T08:58:48.767Z,22.25
2022-09-29T08:59:48.615Z,22.28
2022-09-29T09:00:48.629Z,22.27
2022-09-29T09:01:48.677Z,22.30
2022-09-29T09:02:50.885Z,22.30
2022-09-29T09:04:22.420Z,22.28
2022-09-29T09:05:21.963Z,22.31
2022-09-29T09:06:22.029Z,22.30
2022-09-29T09:07:21.986Z,22.33
2022-09-29T09:08:21.966Z,22.33
2022-09-29T09:09:21.923Z,22.33
2022-09-29T09:10:21.989Z,22.33
2022-09-29T09:11:22.577Z,22.33
2022-09-29T09:12:21.871Z,22.35
2022-09-29T09:13:22.095Z,22.36
2022-09-29T09:14:21.851Z,22.37
2022-09-29T09:15:21.830Z,22.36
2022-09-29T09:16:21.983Z,22.36
2022-09-29T09:17:21.799Z,22.37
2022-09-29T09:18:21.791Z,22.37
2022-09-29T09:19:21.843Z,22.39
2022-09-29T09:20:21.757Z,22.39
2022-09-29T09:21:22.018Z,22.43
2022-09-29T09:22:21.827Z,22.40
2022-09-29T09:23:21.754Z,22.40
2022-09-29T09:24:24.691Z,22.45
2022-09-29T09:25:21.724Z,22.43
2022-09-29T09:26:21.676Z,22.46
2022-09-29T09:27:21.662Z,22.46
2022-09-29T09:28:21.810Z,22.46
2022-09-29T09:29:21.843Z,22.46
2022-09-29T09:30:21.621Z,22.46
2022-09-29T09:31:21.720Z,22.47
2022-09-29T09:32:21.586Z,22.47
2022-09-29T09:33:30.238Z,22.47
2022-09-29T09:34:35.391Z,22.47
2022-09-29T09:35:24.181Z,22.46
2022-09-29T09:36:31.787Z,22.46
2022-09-29T09:37:22.552Z,22.46
2022-09-29T09:38:21.512Z,22.46
2022-09-29T09:39:21.498Z,22.47
2022-09-29T09:40:21.652Z,22.49
2022-09-29T09:41:21.467Z,22.47
2022-09-29T09:42:21.457Z,22.46
2022-09-29T09:43:21.468Z,22.49
2022-09-29T09:44:21.663Z,22.52
2022-09-29T09:45:21.386Z,22.51
2022-09-29T09:46:21.631Z,22.51
2022-09-29T09:47:21.382Z,22.54
2022-09-29T09:48:23.966Z,22.51
2022-09-29T09:49:21.414Z,22.54
2022-09-29T09:50:21.341Z,22.54
2022-09-29T09:51:21.332Z,22.57
2022-09-29T09:52:21.396Z,22.54
2022-09-29T09:53:21.298Z,22.55
2022-09-29T09:54:21.375Z,22.54
2022-09-29T09:55:21.325Z,22.57
2022-09-29T09:56:21.257Z,22.58
2022-09-29T09:57:21.237Z,22.60
2022-09-29T09:58:21.309Z,22.58
2022-09-29T09:59:21.282Z,22.57
2022-09-29T10:00:21.386Z,22.60
2022-09-29T10:01:21.588Z,22.60
2022-09-29T10:02:21.324Z,22.58
2022-09-29T10:03:21.174Z,22.61
2022-09-29T10:04:21.479Z,22.64
2022-09-29T10:05:21.149Z,22.62
2022-09-29T10:06:21.152Z,22.62
2022-09-29T10:07:21.220Z,22.64
2022-09-29T10:08:21.092Z,22.64
2022-09-29T10:09:21.438Z,22.64
2022-09-29T10:10:21.224Z,22.64
2022-09-29T10:11:21.212Z,22.65
2022-09-29T10:12:21.195Z,22.67
2022-09-29T10:13:21.266Z,22.67
2022-09-29T10:14:21.007Z,22.68
2022-09-29T10:15:21.005Z,22.68
2022-09-29T10:16:21.153Z,22.65
2022-09-29T10:17:20.967Z,22.67
2022-09-29T10:18:20.995Z,22.67
2022-09-29T10:19:21.169Z,22.67
2022-09-29T10:20:20.908Z,22.68
2022-09-29T10:21:20.905Z,22.68
2022-09-29T10:23:20.891Z,22.68
2022-09-29T10:24:20.975Z,22.68
2022-09-29T10:25:20.868Z,22.68
2022-09-29T10:26:20.874Z,22.70
2022-09-29T10:27:20.834Z,22.72
2022-09-29T10:28:21.099Z,22.70
2022-09-29T10:29:20.803Z,22.75
2022-09-29T10:30:20.951Z,22.76
2022-09-29T10:31:20.824Z,22.76
2022-09-29T10:32:20.761Z,22.77
2022-09-29T10:33:20.986Z,22.80
2022-09-29T10:34:20.952Z,22.79
2022-09-29T10:35:20.725Z,22.79
2022-09-29T10:36:21.349Z,22.82
2022-09-29T10:37:23.001Z,22.82
2022-09-29T10:38:20.664Z,22.85
2022-09-29T10:39:20.642Z,22.85
2022-09-29T10:40:20.728Z,22.86
2022-09-29T10:41:20.634Z,22.86
2022-09-29T10:42:20.639Z,22.86
2022-09-29T10:43:20.625Z,22.88
2022-09-29T10:44:26.999Z,22.88
2022-09-29T10:45:21.726Z,22.88
2022-09-29T10:46:20.612Z,22.90
2022-09-29T10:47:20.530Z,22.92
2022-09-29T10:48:20.535Z,22.94
2022-09-29T10:49:20.557Z,22.94
2022-09-29T10:50:20.516Z,22.94
2022-09-29T10:51:20.606Z,22.95
2022-09-29T10:52:20.472Z,22.97
2022-09-29T10:53:20.669Z,22.95
2022-09-29T10:54:20.595Z,22.97
2022-09-29T10:55:20.520Z,22.95
2022-09-29T10:56:20.409Z,22.95
2022-09-29T10:57:20.581Z,22.95
2022-09-29T10:58:37.550Z,22.97
2022-09-29T10:59:21.379Z,22.98
2022-09-29T11:00:20.352Z,22.97
2022-09-29T11:01:20.429Z,22.97
2022-09-29T11:02:20.378Z,22.97
2022-09-29T11:03:20.787Z,22.94
2022-09-29T11:04:20.412Z,22.97
2022-09-29T11:05:20.321Z,22.95
2022-09-29T11:06:20.268Z,22.94
2022-09-29T11:07:20.426Z,22.94
2022-09-29T11:08:20.237Z,22.95
2022-09-29T11:09:20.522Z,22.97
2022-09-29T11:10:20.235Z,22.98
2022-09-29T11:11:20.192Z,22.97
2022-09-29T11:12:20.185Z,22.94
2022-09-29T11:13:20.250Z,22.97
2022-09-29T11:14:20.755Z,22.98
2022-09-29T11:15:20.313Z,23.00
2022-09-29T11:16:20.185Z,23.02
2022-09-29T11:17:20.121Z,23.00
2022-09-29T11:18:20.104Z,23.02
2022-09-29T11:19:21.200Z,23.02
2022-09-29T11:20:20.178Z,23.04
2022-09-29T11:21:20.288Z,23.05
2022-09-29T11:22:20.057Z,23.09
2022-09-29T11:23:20.025Z,23.13
2022-09-29T11:24:20.009Z,23.13
2022-09-29T11:25:20.056Z,23.15
2022-09-29T11:26:19.980Z,23.16
2022-09-29T11:27:20.110Z,23.16
2022-09-29T11:28:19.952Z,23.19
2022-09-29T11:29:20.028Z,23.17
2022-09-29T11:30:19.986Z,23.20
2022-09-29T11:31:19.937Z,23.22
2022-09-29T11:32:19.900Z,23.20
2022-09-29T11:33:20.089Z,23.19
2022-09-29T11:34:19.875Z,23.19
2022-09-29T11:35:19.849Z,23.20
2022-09-29T11:36:19.848Z,23.17
2022-09-29T11:37:19.849Z,23.20
2022-09-29T11:38:19.815Z,23.20
2022-09-29T11:39:20.033Z,23.19
2022-09-29T11:40:19.775Z,23.20
2022-09-29T11:41:20.743Z,23.20
2022-09-29T11:42:19.756Z,23.19
2022-09-29T11:43:19.809Z,23.19
2022-09-29T11:44:19.776Z,23.20
2022-09-29T11:45:20.221Z,23.20
2022-09-29T11:46:19.922Z,23.19
2022-09-29T11:47:19.741Z,23.19
2022-09-29T11:48:20.960Z,23.17
2022-09-29T11:49:19.954Z,23.17
2022-09-29T11:50:19.640Z,23.19
2022-09-29T11:51:19.731Z,23.19
2022-09-29T11:52:19.611Z,23.20
2022-09-29T11:53:19.625Z,23.19
2022-09-29T11:54:19.637Z,23.20
2022-09-29T11:55:19.621Z,23.19
2022-09-29T11:56:19.580Z,23.19
2022-09-29T11:57:19.752Z,23.17
2022-09-29T11:58:19.530Z,23.17
2022-09-29T11:59:19.585Z,23.17
2022-09-29T12:00:19.522Z,23.17
2022-09-29T12:01:19.512Z,23.16
2022-09-29T12:02:19.555Z,23.17
2022-09-29T12:03:19.678Z,23.17
2022-09-29T12:04:19.491Z,23.20
2022-09-29T12:05:19.435Z,23.19
2022-09-29T12:06:19.460Z,23.16
2022-09-29T12:07:19.450Z,23.17
2022-09-29T12:08:19.389Z,23.17
2022-09-29T12:09:19.636Z,23.17
2022-09-29T12:10:23.543Z,23.20
2022-09-29T12:11:44.504Z,23.19
2022-09-29T12:12:24.547Z,23.22
2022-09-29T12:13:19.525Z,23.23
2022-09-29T12:14:19.359Z,23.20
2022-09-29T12:15:19.566Z,23.25
2022-09-29T12:16:19.328Z,23.20
2022-09-29T12:17:19.281Z,23.19
2022-09-29T12:18:19.288Z,23.25
2022-09-29T12:19:19.248Z,23.23
2022-09-29T12:20:19.239Z,23.23
2022-09-29T12:21:19.383Z,23.23
2022-09-29T12:22:19.215Z,23.27
2022-09-29T12:23:19.199Z,23.28
2022-09-29T12:24:19.439Z,23.27
2022-09-29T12:25:19.172Z,23.32
2022-09-29T12:26:19.132Z,23.31
2022-09-29T12:27:19.306Z,23.35
2022-09-29T12:28:19.168Z,23.35
2022-09-29T12:29:19.110Z,23.32
2022-09-29T12:30:19.133Z,23.36
2022-09-29T12:31:19.150Z,23.33
2022-09-29T12:32:19.505Z,23.35
2022-09-29T12:33:19.337Z,23.38
2022-09-29T12:34:19.121Z,23.38
2022-09-29T12:35:19.168Z,23.40
2022-09-29T12:36:19.094Z,23.40
2022-09-29T12:37:18.977Z,23.40
2022-09-29T12:38:18.972Z,23.42
2022-09-29T12:39:19.557Z,23.42
2022-09-29T12:40:19.475Z,23.46
2022-09-29T12:41:19.919Z,23.43
2022-09-29T12:42:18.970Z,23.46
2022-09-29T12:43:19.072Z,23.47
2022-09-29T12:44:18.923Z,23.47
2022-09-29T12:45:19.088Z,23.47
2022-09-29T12:46:18.943Z,23.47
2022-09-29T12:47:18.845Z,23.47
2022-09-29T12:48:19.925Z,23.48
2022-09-29T12:49:18.829Z,23.48
2022-09-29T12:50:18.801Z,23.47
2022-09-29T12:51:18.901Z,23.46
2022-09-29T12:52:18.791Z,23.48
2022-09-29T12:53:18.771Z,23.48
2022-09-29T12:54:18.941Z,23.48